sensor_id;sensor_type;location;lat;lon;timestamp;pressure;altitude;pressure_sealevel;temperature;humidity
31357;BME280;60001;48.404;11.738;2023-03-23T00:01:06;95809.28;;;10.62;54.31
31357;BME280;60001;48.404;11.738;2023-03-23T00:02:41;95811.69;;;10.59;54.46
31357;BME280;60001;48.404;11.738;2023-03-23T00:04:14;95822.50;;;10.62;54.57
31357;BME280;60001;48.404;11.738;2023-03-23T00:05:45;95824.59;;;10.60;54.65
31357;BME280;60001;48.404;11.738;2023-03-23T00:07:20;95789.47;;;10.34;54.77
31357;BME280;60001;48.404;11.738;2023-03-23T00:08:57;95820.91;;;10.51;54.69
31357;BME280;60001;48.404;11.738;2023-03-23T00:10:29;95820.91;;;10.51;55.23
31357;BME280;60001;48.404;11.738;2023-03-23T00:12:03;95823.00;;;10.49;54.65
31357;BME280;60001;48.404;11.738;2023-03-23T00:13:36;95826.97;;;10.47;55.01
31357;BME280;60001;48.404;11.738;2023-03-23T00:15:08;95823.00;;;10.44;55.06
31357;BME280;60001;48.404;11.738;2023-03-23T00:16:43;95817.44;;;10.40;55.01
31357;BME280;60001;48.404;11.738;2023-03-23T00:18:16;95822.75;;;10.46;54.78
31357;BME280;60001;48.404;11.738;2023-03-23T00:19:52;95829.88;;;10.50;55.12
31357;BME280;60001;48.404;11.738;2023-03-23T00:21:25;95823.78;;;10.50;54.90
31357;BME280;60001;48.404;11.738;2023-03-23T00:23:03;95811.66;;;10.49;55.07
31357;BME280;60001;48.404;11.738;2023-03-23T00:24:35;95831.19;;;10.53;54.87
31357;BME280;60001;48.404;11.738;2023-03-23T00:26:07;95818.28;;;10.51;54.93
31357;BME280;60001;48.404;11.738;2023-03-23T00:27:39;95824.06;;;10.53;54.90
31357;BME280;60001;48.404;11.738;2023-03-23T00:29:13;95823.00;;;10.54;54.83
31357;BME280;60001;48.404;11.738;2023-03-23T00:30:45;95820.09;;;10.56;55.16
31357;BME280;60001;48.404;11.738;2023-03-23T00:32:16;95823.53;;;10.56;55.01
31357;BME280;60001;48.404;11.738;2023-03-23T00:33:50;95820.91;;;10.56;55.29
31357;BME280;60001;48.404;11.738;2023-03-23T00:35:20;95819.88;;;10.57;55.25
31357;BME280;60001;48.404;11.738;2023-03-23T00:36:54;95817.22;;;10.57;55.16
31357;BME280;60001;48.404;11.738;2023-03-23T00:38:27;95820.38;;;10.59;55.25
31357;BME280;60001;48.404;11.738;2023-03-23T00:39:58;95816.97;;;10.59;55.50
31357;BME280;60001;48.404;11.738;2023-03-23T00:41:30;95821.97;;;10.60;55.44
31357;BME280;60001;48.404;11.738;2023-03-23T00:43:03;95813.25;;;10.60;55.71
31357;BME280;60001;48.404;11.738;2023-03-23T00:44:35;95815.09;;;10.59;55.58
31357;BME280;60001;48.404;11.738;2023-03-23T00:46:07;95819.06;;;10.62;55.47
31357;BME280;60001;48.404;11.738;2023-03-23T00:47:40;95819.06;;;10.62;55.60
31357;BME280;60001;48.404;11.738;2023-03-23T00:49:15;95820.63;;;10.63;55.47
31357;BME280;60001;48.404;11.738;2023-03-23T00:50:48;95823.03;;;10.64;55.33
31357;BME280;60001;48.404;11.738;2023-03-23T00:52:20;95820.63;;;10.63;55.69
31357;BME280;60001;48.404;11.738;2023-03-23T00:53:52;95820.13;;;10.66;55.39
31357;BME280;60001;48.404;11.738;2023-03-23T00:55:25;95814.06;;;10.65;55.25
31357;BME280;60001;48.404;11.738;2023-03-23T00:56:56;95818.78;;;10.68;55.68
31357;BME280;60001;48.404;11.738;2023-03-23T00:58:28;95816.69;;;10.70;55.62
31357;BME280;60001;48.404;11.738;2023-03-23T01:00:00;95819.88;;;10.73;55.39
31357;BME280;60001;48.404;11.738;2023-03-23T01:01:34;95819.59;;;10.74;55.64
31357;BME280;60001;48.404;11.738;2023-03-23T01:03:07;95825.41;;;10.76;55.40
31357;BME280;60001;48.404;11.738;2023-03-23T01:04:40;95820.38;;;10.75;55.46
31357;BME280;60001;48.404;11.738;2023-03-23T01:06:15;95815.09;;;10.69;55.37
31357;BME280;60001;48.404;11.738;2023-03-23T01:07:47;95818.81;;;10.74;55.62
31357;BME280;60001;48.404;11.738;2023-03-23T01:09:19;95811.41;;;10.70;55.75
31357;BME280;60001;48.404;11.738;2023-03-23T01:11:02;95814.03;;;10.76;55.71
31357;BME280;60001;48.404;11.738;2023-03-23T01:12:34;95815.38;;;10.78;55.49
31357;BME280;60001;48.404;11.738;2023-03-23T01:14:06;95814.56;;;10.78;55.98
31357;BME280;60001;48.404;11.738;2023-03-23T01:15:38;95811.69;;;10.79;55.83
31357;BME280;60001;48.404;11.738;2023-03-23T01:17:10;95811.94;;;10.83;55.80
31357;BME280;60001;48.404;11.738;2023-03-23T01:18:42;95813.28;;;10.85;55.76
31357;BME280;60001;48.404;11.738;2023-03-23T01:20:15;95803.72;;;10.84;55.71
31357;BME280;60001;48.404;11.738;2023-03-23T01:21:47;95804.00;;;10.83;55.74
31357;BME280;60001;48.404;11.738;2023-03-23T01:23:19;95813.50;;;10.89;55.48
31357;BME280;60001;48.404;11.738;2023-03-23T01:24:50;95808.22;;;10.89;55.58
31357;BME280;60001;48.404;11.738;2023-03-23T01:26:24;95805.31;;;10.90;55.24
31357;BME280;60001;48.404;11.738;2023-03-23T01:27:56;95801.63;;;10.91;55.34
31357;BME280;60001;48.404;11.738;2023-03-23T01:29:28;95810.38;;;10.92;55.39
31357;BME280;60001;48.404;11.738;2023-03-23T01:31:01;95798.22;;;10.86;55.13
31357;BME280;60001;48.404;11.738;2023-03-23T01:32:34;95801.09;;;10.89;55.11
31357;BME280;60001;48.404;11.738;2023-03-23T01:34:06;95796.88;;;10.88;55.19
31357;BME280;60001;48.404;11.738;2023-03-23T01:35:39;95799.25;;;10.90;55.10
31357;BME280;60001;48.404;11.738;2023-03-23T01:37:11;95796.59;;;10.90;54.91
31357;BME280;60001;48.404;11.738;2023-03-23T01:38:45;95798.47;;;10.89;55.30
31357;BME280;60001;48.404;11.738;2023-03-23T01:40:17;95778.66;;;10.82;54.78
31357;BME280;60001;48.404;11.738;2023-03-23T01:41:49;95794.25;;;10.88;55.17
31357;BME280;60001;48.404;11.738;2023-03-23T01:43:21;95795.31;;;10.87;54.75
31357;BME280;60001;48.404;11.738;2023-03-23T01:45:23;95789.22;;;10.87;54.54
31357;BME280;60001;48.404;11.738;2023-03-23T01:46:56;95777.88;;;10.81;54.80
31357;BME280;60001;48.404;11.738;2023-03-23T01:48:32;95779.97;;;10.84;54.92
31357;BME280;60001;48.404;11.738;2023-03-23T01:50:06;95787.38;;;10.82;55.03
31357;BME280;60001;48.404;11.738;2023-03-23T01:51:43;95792.13;;;10.80;55.12
31357;BME280;60001;48.404;11.738;2023-03-23T01:53:18;95790.00;;;10.77;54.74
31357;BME280;60001;48.404;11.738;2023-03-23T01:54:53;95788.69;;;10.75;55.10
31357;BME280;60001;48.404;11.738;2023-03-23T01:56:31;95790.28;;;10.70;55.52
31357;BME280;60001;48.404;11.738;2023-03-23T01:58:06;95793.19;;;10.69;55.63
31357;BME280;60001;48.404;11.738;2023-03-23T01:59:38;95788.44;;;10.66;55.33
31357;BME280;60001;48.404;11.738;2023-03-23T02:01:15;95787.09;;;10.63;55.75
31357;BME280;60001;48.404;11.738;2023-03-23T02:02:49;95784.22;;;10.60;56.07
31357;BME280;60001;48.404;11.738;2023-03-23T02:04:24;95782.09;;;10.57;55.99
31357;BME280;60001;48.404;11.738;2023-03-23T02:05:58;95782.34;;;10.55;55.78
31357;BME280;60001;48.404;11.738;2023-03-23T02:07:31;95784.72;;;10.47;56.20
31357;BME280;60001;48.404;11.738;2023-03-23T02:09:03;95789.47;;;10.50;56.05
31357;BME280;60001;48.404;11.738;2023-03-23T02:10:37;95786.06;;;10.44;56.11
31357;BME280;60001;48.404;11.738;2023-03-23T02:12:08;95780.50;;;10.40;56.05
31357;BME280;60001;48.404;11.738;2023-03-23T02:13:40;95786.31;;;10.37;56.74
31357;BME280;60001;48.404;11.738;2023-03-23T02:15:11;95786.56;;;10.36;56.34
31357;BME280;60001;48.404;11.738;2023-03-23T02:16:50;95787.09;;;10.33;56.42
31357;BME280;60001;48.404;11.738;2023-03-23T02:18:38;95777.59;;;10.27;56.72
31357;BME280;60001;48.404;11.738;2023-03-23T02:20:47;95776.53;;;10.23;56.89
31357;BME280;60001;48.404;11.738;2023-03-23T02:22:53;95783.88;;;10.21;57.16
31357;BME280;60001;48.404;11.738;2023-03-23T02:24:55;95783.88;;;10.21;57.38
31357;BME280;60001;48.404;11.738;2023-03-23T02:26:43;95780.44;;;10.20;57.46
31357;BME280;60001;48.404;11.738;2023-03-23T02:28:42;95782.03;;;10.21;57.61
31357;BME280;60001;48.404;11.738;2023-03-23T02:30:37;95782.59;;;10.23;57.72
31357;BME280;60001;48.404;11.738;2023-03-23T02:32:21;95781.22;;;10.21;57.49
31357;BME280;60001;48.404;11.738;2023-03-23T02:34:08;95781.53;;;10.24;57.55
31357;BME280;60001;48.404;11.738;2023-03-23T02:35:47;95777.53;;;10.22;57.81
31357;BME280;60001;48.404;11.738;2023-03-23T02:37:24;95778.59;;;10.21;57.72
31357;BME280;60001;48.404;11.738;2023-03-23T02:39:05;95774.13;;;10.16;57.62
31357;BME280;60001;48.404;11.738;2023-03-23T02:40:42;95778.84;;;10.19;58.02
31357;BME280;60001;48.404;11.738;2023-03-23T02:42:24;95773.06;;;10.17;57.69
31357;BME280;60001;48.404;11.738;2023-03-23T02:44:02;95774.63;;;10.13;58.11
31357;BME280;60001;48.404;11.738;2023-03-23T02:45:36;95778.59;;;10.10;58.43
31357;BME280;60001;48.404;11.738;2023-03-23T02:47:14;95777.00;;;10.09;58.32
31357;BME280;60001;48.404;11.738;2023-03-23T02:48:50;95780.69;;;10.03;58.72
31357;BME280;60001;48.404;11.738;2023-03-23T02:50:27;95779.63;;;10.04;58.52
31357;BME280;60001;48.404;11.738;2023-03-23T02:52:08;95784.63;;;10.01;58.72
31357;BME280;60001;48.404;11.738;2023-03-23T02:53:43;95778.03;;;9.98;58.67
31357;BME280;60001;48.404;11.738;2023-03-23T02:55:18;95786.19;;;9.97;58.46
31357;BME280;60001;48.404;11.738;2023-03-23T02:56:52;95779.84;;;9.93;59.02
31357;BME280;60001;48.404;11.738;2023-03-23T02:58:24;95785.38;;;9.91;58.43
31357;BME280;60001;48.404;11.738;2023-03-23T02:59:56;95779.06;;;9.92;58.89
31357;BME280;60001;48.404;11.738;2023-03-23T03:01:57;95764.56;;;9.89;58.94
31357;BME280;60001;48.404;11.738;2023-03-23T03:03:31;95771.69;;;9.89;58.99
31357;BME280;60001;48.404;11.738;2023-03-23T03:05:13;95765.84;;;9.82;59.16
31357;BME280;60001;48.404;11.738;2023-03-23T03:07:08;95763.47;;;9.85;59.40
31357;BME280;60001;48.404;11.738;2023-03-23T03:08:48;95766.38;;;9.84;59.21
31357;BME280;60001;48.404;11.738;2023-03-23T03:10:26;95761.63;;;9.86;59.51
31357;BME280;60001;48.404;11.738;2023-03-23T03:12:08;95765.84;;;9.82;59.29
31357;BME280;60001;48.404;11.738;2023-03-23T03:13:50;95758.22;;;9.85;59.26
31357;BME280;60001;48.404;11.738;2023-03-23T03:15:29;95765.31;;;9.85;59.26
31357;BME280;60001;48.404;11.738;2023-03-23T03:17:08;95767.19;;;9.84;59.45
31357;BME280;60001;48.404;11.738;2023-03-23T03:18:49;95774.03;;;9.85;59.76
31357;BME280;60001;48.404;11.738;2023-03-23T03:20:25;95755.56;;;9.80;59.71
31357;BME280;60001;48.404;11.738;2023-03-23T03:21:59;95762.94;;;9.78;59.81
31357;BME280;60001;48.404;11.738;2023-03-23T03:23:33;95767.16;;;9.79;60.34
31357;BME280;60001;48.404;11.738;2023-03-23T03:25:07;95765.31;;;9.80;60.24
31357;BME280;60001;48.404;11.738;2023-03-23T03:26:46;95756.63;;;9.74;60.23
31357;BME280;60001;48.404;11.738;2023-03-23T03:28:20;95753.19;;;9.79;60.07
31357;BME280;60001;48.404;11.738;2023-03-23T03:29:56;95744.47;;;9.73;60.52
31357;BME280;60001;48.404;11.738;2023-03-23T03:31:34;95752.13;;;9.80;60.40
31357;BME280;60001;48.404;11.738;2023-03-23T03:33:08;95753.47;;;9.82;60.45
31357;BME280;60001;48.404;11.738;2023-03-23T03:34:41;95756.63;;;9.84;60.69
31357;BME280;60001;48.404;11.738;2023-03-23T03:36:17;95762.19;;;9.88;60.24
31357;BME280;60001;48.404;11.738;2023-03-23T03:37:51;95757.72;;;9.88;60.75
31357;BME280;60001;48.404;11.738;2023-03-23T03:39:22;95765.31;;;9.85;60.89
31357;BME280;60001;48.404;11.738;2023-03-23T03:40:55;95771.41;;;9.85;61.20
31357;BME280;60001;48.404;11.738;2023-03-23T03:42:27;95772.75;;;9.88;61.58
31357;BME280;60001;48.404;11.738;2023-03-23T03:43:59;95772.75;;;9.88;61.06
31357;BME280;60001;48.404;11.738;2023-03-23T03:45:31;95782.22;;;9.89;61.28
31357;BME280;60001;48.404;11.738;2023-03-23T03:47:02;95775.38;;;9.88;61.49
31357;BME280;60001;48.404;11.738;2023-03-23T03:48:33;95779.31;;;9.85;61.54
31357;BME280;60001;48.404;11.738;2023-03-23T03:50:07;95773.50;;;9.83;61.53
31357;BME280;60001;48.404;11.738;2023-03-23T03:51:39;95765.31;;;9.80;61.13
31357;BME280;60001;48.404;11.738;2023-03-23T03:53:13;95760.81;;;9.80;61.40
31357;BME280;60001;48.404;11.738;2023-03-23T03:54:44;95779.31;;;9.85;61.34
31357;BME280;60001;48.404;11.738;2023-03-23T03:56:17;95776.66;;;9.85;61.56
31357;BME280;60001;48.404;11.738;2023-03-23T03:57:50;95774.81;;;9.81;61.43
31357;BME280;60001;48.404;11.738;2023-03-23T03:59:22;95776.41;;;9.82;61.76
31357;BME280;60001;48.404;11.738;2023-03-23T04:00:53;95782.72;;;9.81;61.32
31357;BME280;60001;48.404;11.738;2023-03-23T04:02:27;95786.41;;;9.80;61.95
31357;BME280;60001;48.404;11.738;2023-03-23T04:03:59;95793.00;;;9.77;62.14
31357;BME280;60001;48.404;11.738;2023-03-23T04:05:30;95794.03;;;9.76;61.99
31357;BME280;60001;48.404;11.738;2023-03-23T04:07:03;95801.97;;;9.76;62.08
31357;BME280;60001;48.404;11.738;2023-03-23T04:08:37;95797.19;;;9.73;62.12
31357;BME280;60001;48.404;11.738;2023-03-23T04:10:10;95785.88;;;9.78;61.88
31357;BME280;60001;48.404;11.738;2023-03-23T04:11:43;95791.97;;;9.83;61.75
31357;BME280;60001;48.404;11.738;2023-03-23T04:13:15;95787.75;;;9.82;61.83
31357;BME280;60001;48.404;11.738;2023-03-23T04:14:47;95784.31;;;9.82;61.43
31357;BME280;60001;48.404;11.738;2023-03-23T04:16:19;95794.06;;;9.86;61.26
31357;BME280;60001;48.404;11.738;2023-03-23T04:17:51;95804.63;;;9.86;61.59
31357;BME280;60001;48.404;11.738;2023-03-23T04:19:22;95807.25;;;9.86;61.46
31357;BME280;60001;48.404;11.738;2023-03-23T04:20:54;95810.69;;;9.87;61.25
31357;BME280;60001;48.404;11.738;2023-03-23T04:22:29;95807.25;;;9.86;61.62
31357;BME280;60001;48.404;11.738;2023-03-23T04:24:01;95810.19;;;9.90;61.68
31357;BME280;60001;48.404;11.738;2023-03-23T04:25:33;95810.72;;;9.92;61.41
31357;BME280;60001;48.404;11.738;2023-03-23T04:27:06;95805.97;;;9.94;61.59
31357;BME280;60001;48.404;11.738;2023-03-23T04:28:36;95809.94;;;9.97;61.56
31357;BME280;60001;48.404;11.738;2023-03-23T04:30:13;95805.47;;;9.97;61.37
31357;BME280;60001;48.404;11.738;2023-03-23T04:31:44;95799.38;;;9.97;61.54
31357;BME280;60001;48.404;11.738;2023-03-23T04:33:16;95802.28;;;9.95;61.26
31357;BME280;60001;48.404;11.738;2023-03-23T04:34:48;95800.19;;;9.97;61.24
31357;BME280;60001;48.404;11.738;2023-03-23T04:36:19;95799.66;;;9.95;61.34
31357;BME280;60001;48.404;11.738;2023-03-23T04:37:53;95793.59;;;9.95;61.41
31357;BME280;60001;48.404;11.738;2023-03-23T04:39:26;95795.97;;;9.96;61.39
31357;BME280;60001;48.404;11.738;2023-03-23T04:40:59;95784.84;;;9.94;61.33
31357;BME280;60001;48.404;11.738;2023-03-23T04:42:32;95794.38;;;9.95;61.61
31357;BME280;60001;48.404;11.738;2023-03-23T04:44:04;95789.09;;;9.95;61.45
31357;BME280;60001;48.404;11.738;2023-03-23T04:45:36;95794.38;;;9.95;61.72
31357;BME280;60001;48.404;11.738;2023-03-23T04:47:11;95785.69;;;9.95;61.23
31357;BME280;60001;48.404;11.738;2023-03-23T04:48:43;95801.25;;;9.96;61.75
31357;BME280;60001;48.404;11.738;2023-03-23T04:50:17;95802.53;;;9.94;61.44
31357;BME280;60001;48.404;11.738;2023-03-23T04:51:49;95809.66;;;9.93;62.15
31357;BME280;60001;48.404;11.738;2023-03-23T04:53:20;95819.66;;;9.91;62.27
31357;BME280;60001;48.404;11.738;2023-03-23T04:54:54;95807.03;;;9.88;62.34
31357;BME280;60001;48.404;11.738;2023-03-23T04:56:26;95817.31;;;9.95;62.70
31357;BME280;60001;48.404;11.738;2023-03-23T04:57:57;95817.84;;;9.97;62.48
31357;BME280;60001;48.404;11.738;2023-03-23T04:59:31;95807.81;;;9.94;62.09
31357;BME280;60001;48.404;11.738;2023-03-23T05:01:03;95799.09;;;9.93;62.27
31357;BME280;60001;48.404;11.738;2023-03-23T05:02:36;95803.09;;;9.96;62.19
31357;BME280;60001;48.404;11.738;2023-03-23T05:04:07;95799.66;;;9.95;62.12
31357;BME280;60001;48.404;11.738;2023-03-23T05:05:38;95795.16;;;9.96;62.38
31357;BME280;60001;48.404;11.738;2023-03-23T05:07:11;95795.69;;;9.98;62.31
31357;BME280;60001;48.404;11.738;2023-03-23T05:08:43;95805.97;;;9.99;61.98
31357;BME280;60001;48.404;11.738;2023-03-23T05:10:15;95793.84;;;9.98;62.33
31357;BME280;60001;48.404;11.738;2023-03-23T05:11:47;95807.84;;;10.04;62.16
31357;BME280;60001;48.404;11.738;2023-03-23T05:13:18;95803.63;;;10.03;62.25
31357;BME280;60001;48.404;11.738;2023-03-23T05:14:50;95804.44;;;10.08;62.02
31357;BME280;60001;48.404;11.738;2023-03-23T05:16:21;95807.09;;;10.08;61.97
31357;BME280;60001;48.404;11.738;2023-03-23T05:17:52;95804.19;;;10.10;62.39
31357;BME280;60001;48.404;11.738;2023-03-23T05:19:26;95791.78;;;10.10;62.03
31357;BME280;60001;48.404;11.738;2023-03-23T05:21:00;95798.13;;;10.09;62.62
31357;BME280;60001;48.404;11.738;2023-03-23T05:22:32;95805.50;;;10.12;62.44
31357;BME280;60001;48.404;11.738;2023-03-23T05:24:03;95819.22;;;10.09;62.24
31357;BME280;60001;48.404;11.738;2023-03-23T05:25:37;95815.00;;;10.13;62.46
31357;BME280;60001;48.404;11.738;2023-03-23T05:27:11;95807.63;;;10.15;62.33
31357;BME280;60001;48.404;11.738;2023-03-23T05:28:45;95804.44;;;10.13;62.83
31357;BME280;60001;48.404;11.738;2023-03-23T05:30:17;95812.63;;;10.12;62.77
31357;BME280;60001;48.404;11.738;2023-03-23T05:31:48;95820.28;;;10.19;62.44
31357;BME280;60001;48.404;11.738;2023-03-23T05:33:20;95815.53;;;10.21;62.35
31357;BME280;60001;48.404;11.738;2023-03-23T05:34:52;95819.28;;;10.25;62.48
31357;BME280;60001;48.404;11.738;2023-03-23T05:36:24;95821.91;;;10.25;62.14
31357;BME280;60001;48.404;11.738;2023-03-23T05:37:56;95821.38;;;10.28;61.94
31357;BME280;60001;48.404;11.738;2023-03-23T05:39:28;95818.25;;;10.31;62.52
31357;BME280;60001;48.404;11.738;2023-03-23T05:41:02;95816.91;;;10.33;62.26
31357;BME280;60001;48.404;11.738;2023-03-23T05:42:34;95814.00;;;10.35;62.39
31357;BME280;60001;48.404;11.738;2023-03-23T05:44:06;95805.03;;;10.36;62.48
31357;BME280;60001;48.404;11.738;2023-03-23T05:45:38;95798.97;;;10.35;62.26
31357;BME280;60001;48.404;11.738;2023-03-23T05:47:10;95784.19;;;10.34;61.89
31357;BME280;60001;48.404;11.738;2023-03-23T05:48:43;95777.06;;;10.30;61.98
31357;BME280;60001;48.404;11.738;2023-03-23T05:50:15;95785.53;;;10.37;61.71
31357;BME280;60001;48.404;11.738;2023-03-23T05:51:48;95784.47;;;10.38;61.71
31357;BME280;60001;48.404;11.738;2023-03-23T05:53:20;95790.25;;;10.40;61.46
31357;BME280;60001;48.404;11.738;2023-03-23T05:54:53;95779.19;;;10.43;61.57
31357;BME280;60001;48.404;11.738;2023-03-23T05:56:26;95778.94;;;10.45;61.52
31357;BME280;60001;48.404;11.738;2023-03-23T05:57:58;95786.59;;;10.46;61.24
31357;BME280;60001;48.404;11.738;2023-03-23T05:59:30;95791.88;;;10.46;61.24
31357;BME280;60001;48.404;11.738;2023-03-23T06:01:01;95789.22;;;10.51;61.35
31357;BME280;60001;48.404;11.738;2023-03-23T06:02:33;95779.19;;;10.53;61.47
31357;BME280;60001;48.404;11.738;2023-03-23T06:04:04;95782.34;;;10.55;61.77
31357;BME280;60001;48.404;11.738;2023-03-23T06:05:42;95773.66;;;10.60;61.46
31357;BME280;60001;48.404;11.738;2023-03-23T06:07:15;95767.31;;;10.61;61.27
31357;BME280;60001;48.404;11.738;2023-03-23T06:08:47;95760.97;;;10.62;61.32
31357;BME280;60001;48.404;11.738;2023-03-23T06:10:21;95763.88;;;10.65;61.22
31357;BME280;60001;48.404;11.738;2023-03-23T06:11:55;95765.47;;;10.72;61.31
31357;BME280;60001;48.404;11.738;2023-03-23T06:13:27;95754.38;;;10.69;61.30
31357;BME280;60001;48.404;11.738;2023-03-23T06:14:59;95756.22;;;10.74;61.33
31357;BME280;60001;48.404;11.738;2023-03-23T06:16:30;95760.72;;;10.79;61.15
31357;BME280;60001;48.404;11.738;2023-03-23T06:18:03;95755.16;;;10.80;60.67
31357;BME280;60001;48.404;11.738;2023-03-23T06:19:35;95757.81;;;10.80;60.71
31357;BME280;60001;48.404;11.738;2023-03-23T06:21:07;95758.31;;;10.82;60.85
31357;BME280;60001;48.404;11.738;2023-03-23T06:22:39;95753.31;;;10.86;60.40
31357;BME280;60001;48.404;11.738;2023-03-23T06:24:11;95757.00;;;10.90;60.61
31357;BME280;60001;48.404;11.738;2023-03-23T06:25:43;95759.91;;;10.93;60.39
31357;BME280;60001;48.404;11.738;2023-03-23T06:27:16;95755.94;;;10.91;60.69
31357;BME280;60001;48.404;11.738;2023-03-23T06:28:48;95743.00;;;10.94;60.59
31357;BME280;60001;48.404;11.738;2023-03-23T06:30:21;95741.13;;;10.95;60.45
31357;BME280;60001;48.404;11.738;2023-03-23T06:31:56;95717.41;;;10.80;60.76
31357;BME280;60001;48.404;11.738;2023-03-23T06:33:29;95744.03;;;11.04;60.41
31357;BME280;60001;48.404;11.738;2023-03-23T06:35:01;95736.09;;;11.04;60.64
31357;BME280;60001;48.404;11.738;2023-03-23T06:36:34;95754.81;;;11.12;60.87
31357;BME280;60001;48.404;11.738;2023-03-23T06:38:06;95751.41;;;11.17;61.34
31357;BME280;60001;48.404;11.738;2023-03-23T06:39:39;95748.75;;;11.22;61.29
31357;BME280;60001;48.404;11.738;2023-03-23T06:41:11;95752.97;;;11.28;61.10
31357;BME280;60001;48.404;11.738;2023-03-23T06:42:44;95746.31;;;11.36;61.37
31357;BME280;60001;48.404;11.738;2023-03-23T06:44:16;95766.66;;;11.40;60.81
31357;BME280;60001;48.404;11.738;2023-03-23T06:45:49;95749.75;;;11.41;61.16
31357;BME280;60001;48.404;11.738;2023-03-23T06:47:20;95762.69;;;11.43;61.20
31357;BME280;60001;48.404;11.738;2023-03-23T06:48:54;95773.00;;;11.39;60.22
31357;BME280;60001;48.404;11.738;2023-03-23T06:50:26;95766.91;;;11.39;60.89
31357;BME280;60001;48.404;11.738;2023-03-23T06:51:58;95775.41;;;11.36;60.99
31357;BME280;60001;48.404;11.738;2023-03-23T06:53:31;95771.69;;;11.37;61.46
31357;BME280;60001;48.404;11.738;2023-03-23T06:55:04;95785.44;;;11.39;61.20
31357;BME280;60001;48.404;11.738;2023-03-23T06:56:37;95763.75;;;11.42;61.09
31357;BME280;60001;48.404;11.738;2023-03-23T06:58:10;95780.66;;;11.46;61.15
31357;BME280;60001;48.404;11.738;2023-03-23T06:59:42;95775.34;;;11.51;61.03
31357;BME280;60001;48.404;11.738;2023-03-23T07:01:14;95789.88;;;11.53;60.70
31357;BME280;60001;48.404;11.738;2023-03-23T07:02:46;95779.06;;;11.55;60.55
31357;BME280;60001;48.404;11.738;2023-03-23T07:04:18;95785.06;;;11.66;60.35
31357;BME280;60001;48.404;11.738;2023-03-23T07:05:50;95779.25;;;11.69;60.25
31357;BME280;60001;48.404;11.738;2023-03-23T07:07:21;95780.56;;;11.76;60.00
31357;BME280;60001;48.404;11.738;2023-03-23T07:08:53;95790.81;;;11.88;59.88
31357;BME280;60001;48.404;11.738;2023-03-23T07:10:25;95788.47;;;11.87;59.55
31357;BME280;60001;48.404;11.738;2023-03-23T07:11:57;95796.38;;;11.92;59.80
31357;BME280;60001;48.404;11.738;2023-03-23T07:13:31;95783.13;;;11.97;60.53
31357;BME280;60001;48.404;11.738;2023-03-23T07:15:03;95786.22;;;12.09;59.76
31357;BME280;60001;48.404;11.738;2023-03-23T07:16:35;95784.63;;;12.13;59.46
31357;BME280;60001;48.404;11.738;2023-03-23T07:18:07;95790.47;;;12.10;58.56
31357;BME280;60001;48.404;11.738;2023-03-23T07:19:39;95787.06;;;11.99;58.63
31357;BME280;60001;48.404;11.738;2023-03-23T07:21:12;95777.47;;;12.14;59.57
31357;BME280;60001;48.404;11.738;2023-03-23T07:22:43;95781.09;;;12.28;59.06
31357;BME280;60001;48.404;11.738;2023-03-23T07:24:16;95784.97;;;12.41;58.37
31357;BME280;60001;48.404;11.738;2023-03-23T07:25:48;95789.22;;;12.42;57.79
31357;BME280;60001;48.404;11.738;2023-03-23T07:27:20;95783.78;;;12.57;58.81
31357;BME280;60001;48.404;11.738;2023-03-23T07:28:53;95783.69;;;12.72;58.62
31357;BME280;60001;48.404;11.738;2023-03-23T07:30:25;95787.81;;;12.88;58.22
31357;BME280;60001;48.404;11.738;2023-03-23T07:31:59;95777.63;;;13.01;58.26
31357;BME280;60001;48.404;11.738;2023-03-23T07:33:31;95776.38;;;13.22;57.50
31357;BME280;60001;48.404;11.738;2023-03-23T07:35:04;95772.31;;;13.30;56.98
31357;BME280;60001;48.404;11.738;2023-03-23T07:36:36;95779.63;;;13.43;55.91
31357;BME280;60001;48.404;11.738;2023-03-23T07:38:08;95796.69;;;13.56;55.68
31357;BME280;60001;48.404;11.738;2023-03-23T07:39:40;95798.97;;;13.67;55.83
31357;BME280;60001;48.404;11.738;2023-03-23T07:41:12;95792.97;;;13.81;56.03
31357;BME280;60001;48.404;11.738;2023-03-23T07:42:45;95791.50;;;13.93;55.30
31357;BME280;60001;48.404;11.738;2023-03-23T07:44:21;95784.16;;;14.04;54.46
31357;BME280;60001;48.404;11.738;2023-03-23T07:45:53;95784.09;;;14.09;53.40
31357;BME280;60001;48.404;11.738;2023-03-23T07:47:25;95785.63;;;14.15;53.76
31357;BME280;60001;48.404;11.738;2023-03-23T07:49:01;95790.59;;;14.22;54.03
31357;BME280;60001;48.404;11.738;2023-03-23T07:50:36;95789.00;;;14.21;53.01
31357;BME280;60001;48.404;11.738;2023-03-23T07:52:08;95785.03;;;14.18;53.43
31357;BME280;60001;48.404;11.738;2023-03-23T07:53:41;95781.34;;;14.19;53.32
31357;BME280;60001;48.404;11.738;2023-03-23T07:55:14;95784.41;;;14.26;53.30
31357;BME280;60001;48.404;11.738;2023-03-23T07:56:48;95780.97;;;14.26;52.60
31357;BME280;60001;48.404;11.738;2023-03-23T07:58:20;95771.63;;;14.29;52.46
31357;BME280;60001;48.404;11.738;2023-03-23T07:59:53;95786.72;;;14.33;52.29
31357;BME280;60001;48.404;11.738;2023-03-23T08:01:24;95790.44;;;14.32;51.97
31357;BME280;60001;48.404;11.738;2023-03-23T08:02:57;95788.84;;;14.31;52.41
31357;BME280;60001;48.404;11.738;2023-03-23T08:04:29;95780.63;;;14.33;52.20
31357;BME280;60001;48.404;11.738;2023-03-23T08:06:07;95789.28;;;14.38;52.37
31357;BME280;60001;48.404;11.738;2023-03-23T08:07:40;95795.59;;;14.42;52.90
31357;BME280;60001;48.404;11.738;2023-03-23T08:09:12;95781.91;;;14.35;52.34
31357;BME280;60001;48.404;11.738;2023-03-23T08:10:44;95778.81;;;14.28;52.44
31357;BME280;60001;48.404;11.738;2023-03-23T08:12:16;95781.75;;;14.26;52.74
31357;BME280;60001;48.404;11.738;2023-03-23T08:13:48;95780.88;;;14.31;52.58